createdAt,value
2022-07-30T00:00:25.248Z,99619.06
2022-07-30T00:02:53.518Z,99612.78
2022-07-30T00:05:21.662Z,99611.72
2022-07-30T00:07:49.550Z,99607.31
2022-07-30T00:10:17.532Z,99620.72
2022-07-30T00:12:45.769Z,99604.59
2022-07-30T00:15:15.186Z,99607.31
2022-07-30T00:17:43.156Z,99608.97
2022-07-30T00:20:14.834Z,99607.31
2022-07-30T00:22:42.953Z,99619.91
2022-07-30T00:25:11.165Z,99610.06
2022-07-30T00:27:39.124Z,99612.78
2022-07-30T00:30:08.026Z,99603.78
2022-07-30T00:32:37.458Z,99604.59
2022-07-30T00:35:06.209Z,99604.91
2022-07-30T00:37:34.128Z,99606.50
2022-07-30T00:40:02.157Z,99605.69
2022-07-30T00:42:38.797Z,99598.59
2022-07-30T00:45:08.097Z,99598.59
2022-07-30T00:47:37.467Z,99595.88
2022-07-30T00:50:06.054Z,99589.91
2022-07-30T00:52:34.005Z,99589.06
2022-07-30T00:55:02.111Z,99594.25
2022-07-30T00:57:30.133Z,99588.25
2022-07-30T00:59:58.266Z,99587.44
2022-07-30T01:02:26.354Z,99579.25
2022-07-30T01:04:55.762Z,99583.91
2022-07-30T01:07:23.993Z,99581.97
2022-07-30T01:09:55.300Z,99581.97
2022-07-30T01:12:25.573Z,99577.31
2022-07-30T01:14:53.557Z,99575.69
2022-07-30T01:17:21.584Z,99568.31
2022-07-30T01:19:48.630Z,99573.50
2022-07-30T01:22:27.851Z,99565.59
2022-07-30T01:25:02.659Z,99568.06
2022-07-30T01:27:33.916Z,99566.41
2022-07-30T01:30:03.929Z,99566.41
2022-07-30T01:32:31.884Z,99571.84
2022-07-30T01:34:59.871Z,99565.59
2022-07-30T01:37:28.214Z,99560.94
2022-07-30T01:39:56.182Z,99563.97
2022-07-30T01:42:24.817Z,99557.69
2022-07-30T01:44:54.151Z,99565.59
2022-07-30T01:47:22.151Z,99564.78
2022-07-30T01:49:50.330Z,99563.97
2022-07-30T01:52:18.669Z,99559.31
2022-07-30T01:54:46.821Z,99557.69
2022-07-30T01:57:14.774Z,99553.06
2022-07-30T01:59:44.057Z,99564.78
2022-07-30T02:02:13.494Z,99558.50
2022-07-30T02:04:45.985Z,99557.69
2022-07-30T02:07:17.668Z,99562.31
2022-07-30T02:09:48.474Z,99549.78
2022-07-30T02:12:31.540Z,99555.25
2022-07-30T02:15:10.185Z,99560.69
2022-07-30T02:17:42.946Z,99551.97
2022-07-30T02:20:13.929Z,99547.31
2022-07-30T02:22:44.338Z,99552.78
2022-07-30T02:25:12.365Z,99540.25
2022-07-30T02:27:40.801Z,99542.16
2022-07-30T02:30:10.315Z,99538.63
2022-07-30T02:32:41.481Z,99535.06
2022-07-30T02:35:13.039Z,99527.97
2022-07-30T02:37:43.806Z,99542.44
2022-07-30T02:40:14.684Z,99520.59
2022-07-30T02:42:42.960Z,99521.41
2022-07-30T02:45:11.707Z,99521.41
2022-07-30T02:47:42.382Z,99516.78
2022-07-30T02:50:10.968Z,99530.44
2022-07-30T02:52:39.036Z,99526.06
2022-07-30T02:55:08.192Z,99527.69
2022-07-30T02:57:36.224Z,99528.78
2022-07-30T03:00:12.507Z,99526.06
2022-07-30T03:02:43.525Z,99527.69
2022-07-30T03:05:11.837Z,99524.13
2022-07-30T03:07:39.889Z,99523.31
2022-07-30T03:10:08.638Z,99519.78
2022-07-30T03:12:37.950Z,99526.06
2022-07-30T03:15:06.956Z,99525.78
2022-07-30T03:17:38.786Z,99517.88
2022-07-30T03:20:10.170Z,99519.78
2022-07-30T03:22:41.302Z,99517.88
2022-07-30T03:25:10.267Z,99517.06
2022-07-30T03:27:38.383Z,99518.97
2022-07-30T03:30:09.363Z,99524.44
2022-07-30T03:32:37.540Z,99524.44
2022-07-30T03:35:08.630Z,99526.34
2022-07-30T03:37:46.222Z,99518.97
2022-07-30T03:40:14.820Z,99516.50
2022-07-30T03:42:42.860Z,99515.72
2022-07-30T03:45:13.708Z,99521.97
2022-07-30T03:47:42.134Z,99527.44
2022-07-30T03:50:10.848Z,99523.91
2022-07-30T03:52:41.075Z,99519.53
2022-07-30T03:55:11.765Z,99522.28
2022-07-30T03:57:39.843Z,99535.94
2022-07-30T04:00:09.238Z,99525.00
2022-07-30T04:02:42.753Z,99514.09
2022-07-30T04:05:10.949Z,99524.16
2022-07-30T04:07:44.959Z,99519.53
2022-07-30T04:10:15.011Z,99519.53
2022-07-30T04:12:43.023Z,99519.53
2022-07-30T04:16:37.283Z,99515.72
2022-07-30T04:18:02.580Z,99514.09
2022-07-30T04:20:32.668Z,99505.91
2022-07-30T04:23:00.597Z,99508.63
2022-07-30T04:25:30.031Z,99515.72
2022-07-30T04:27:58.459Z,99519.53
2022-07-30T04:30:31.593Z,99514.09
2022-07-30T04:32:59.603Z,99507.78
2022-07-30T04:35:51.291Z,99503.16
2022-07-30T04:38:18.607Z,99503.16
2022-07-30T04:40:48.027Z,99508.63
2022-07-30T04:43:15.973Z,99503.16
2022-07-30T04:45:43.999Z,99503.16
2022-07-30T04:48:11.964Z,99499.31
2022-07-30T04:50:40.725Z,99501.53
2022-07-30T04:53:08.889Z,99502.31
2022-07-30T04:55:36.874Z,99503.16
2022-07-30T04:58:06.275Z,99507.78
2022-07-30T05:00:37.711Z,99505.91
2022-07-30T05:03:08.583Z,99501.53
2022-07-30T05:05:36.654Z,99496.34
2022-07-30T05:08:05.205Z,99502.63
2022-07-30T05:10:33.280Z,99501.78
2022-07-30T05:13:01.540Z,99497.16
2022-07-30T05:15:36.927Z,99492.53
2022-07-30T05:18:05.673Z,99492.53
2022-07-30T05:20:33.744Z,99498.78
2022-07-30T05:23:01.683Z,99502.63
2022-07-30T05:25:29.693Z,99499.91
2022-07-30T05:27:58.297Z,99500.72
2022-07-30T05:30:27.800Z,99501.53
2022-07-30T05:32:57.298Z,99506.97
2022-07-30T05:35:25.615Z,99515.97
2022-07-30T05:37:53.627Z,99509.44
2022-07-30T05:40:22.208Z,99518.97
2022-07-30T05:42:50.152Z,99513.50
2022-07-30T05:45:18.099Z,99508.84
2022-07-30T05:47:46.074Z,99509.66
2022-07-30T05:50:15.390Z,99515.13
2022-07-30T05:52:43.437Z,99516.25
2022-07-30T05:55:12.118Z,99517.88
2022-07-30T05:57:42.074Z,99526.06
2022-07-30T06:00:11.122Z,99529.59
2022-07-30T06:02:40.761Z,99529.31
2022-07-30T06:05:09.587Z,99536.41
2022-07-30T06:07:38.955Z,99541.84
2022-07-30T06:10:07.607Z,99538.03
2022-07-30T06:12:35.654Z,99530.94
2022-07-30T06:15:03.621Z,99529.84
2022-07-30T06:17:31.551Z,99529.84
2022-07-30T06:20:10.437Z,99534.22
2022-07-30T06:22:39.840Z,99532.59
2022-07-30T06:25:08.509Z,99528.75
2022-07-30T06:27:39.700Z,99522.47
2022-07-30T06:30:09.608Z,99530.41
2022-07-30T06:32:37.585Z,99519.47
2022-07-30T06:35:06.107Z,99522.47
2022-07-30T06:38:05.878Z,99524.94
2022-07-30T06:40:23.597Z,99529.28
2022-07-30T06:42:51.585Z,99521.09
2022-07-30T06:45:19.672Z,99536.38
2022-07-30T06:47:47.619Z,99532.56
2022-07-30T06:50:15.741Z,99531.44
2022-07-30T06:52:43.691Z,99529.81
2022-07-30T06:55:11.691Z,99533.06
2022-07-30T06:57:42.619Z,99524.59
2022-07-30T07:00:11.700Z,99531.97
2022-07-30T07:02:39.859Z,99530.88
2022-07-30T07:05:08.733Z,99524.31
2022-07-30T07:07:42.400Z,99521.59
2022-07-30T07:10:11.143Z,99522.41
2022-07-30T07:12:40.479Z,99517.75
2022-07-30T07:15:09.876Z,99514.22
2022-07-30T07:17:37.867Z,99512.28
2022-07-30T07:20:06.878Z,99508.44
2022-07-30T07:22:34.868Z,99513.41
2022-07-30T07:25:02.848Z,99507.09
2022-07-30T07:27:30.772Z,99512.28
2022-07-30T07:30:01.814Z,99509.56
2022-07-30T07:32:33.868Z,99504.38
2022-07-30T07:35:01.850Z,99507.41
2022-07-30T07:37:29.877Z,99507.41
2022-07-30T07:39:57.858Z,99501.94
2022-07-30T07:42:25.858Z,99505.75
2022-07-30T07:44:53.825Z,99507.41
2022-07-30T07:47:23.160Z,99501.94
2022-07-30T07:49:51.173Z,99511.22
2022-07-30T07:52:19.185Z,99512.84
2022-07-30T07:54:47.246Z,99507.41
2022-07-30T07:57:15.720Z,99498.91
2022-07-30T07:59:43.908Z,99503.56
2022-07-30T08:02:12.768Z,99502.97
2022-07-30T08:04:42.181Z,99495.31
2022-07-30T08:07:10.176Z,99496.13
2022-07-30T08:09:44.089Z,99495.03
2022-07-30T08:12:13.061Z,99491.50
2022-07-30T08:14:41.093Z,99495.84
2022-07-30T08:17:09.568Z,99494.75
2022-07-30T08:19:37.622Z,99483.81
2022-07-30T08:22:06.979Z,99493.66
2022-07-30T08:24:34.999Z,99481.63
2022-07-30T08:27:03.543Z,99484.34
2022-07-30T08:29:31.788Z,99476.16
2022-07-30T08:32:00.080Z,99482.16
2022-07-30T08:34:28.771Z,99479.41
2022-07-30T08:36:56.761Z,99474.78
2022-07-30T08:39:26.211Z,99473.16
2022-07-30T08:41:54.151Z,99468.19
2022-07-30T08:44:22.690Z,99464.66
2022-07-30T08:46:50.706Z,99466.31
2022-07-30T08:49:18.647Z,99471.75
2022-07-30T08:51:46.596Z,99477.22
2022-07-30T08:54:14.529Z,99469.03
2022-07-30T08:56:43.925Z,99470.66
2022-07-30T08:59:11.919Z,99478.84
2022-07-30T09:01:39.885Z,99473.38
2022-07-30T09:04:08.428Z,99473.09
2022-07-30T09:06:37.122Z,99464.38
2022-07-30T09:09:05.203Z,99475.84
2022-07-30T09:11:35.342Z,99474.72
2022-07-30T09:14:11.055Z,99472.81
2022-07-30T09:16:39.262Z,99467.34
2022-07-30T09:19:14.675Z,99476.06
2022-07-30T09:21:42.731Z,99469.47
2022-07-30T09:24:11.608Z,99468.41
2022-07-30T09:26:56.512Z,99464.56
2022-07-30T09:29:26.724Z,99461.81
2022-07-30T09:31:56.023Z,99471.63
2022-07-30T09:34:30.934Z,99470.81
2022-07-30T09:36:59.149Z,99472.47
2022-07-30T09:39:31.556Z,99467.81
2022-07-30T09:41:59.792Z,99476.00
2022-07-30T09:44:29.827Z,99477.94
2022-07-30T09:46:59.593Z,99476.00
2022-07-30T09:49:28.859Z,99480.38
2022-07-30T09:51:57.791Z,99474.63
2022-07-30T09:54:26.319Z,99474.63
2022-07-30T09:57:23.075Z,99461.78
2022-07-30T09:59:57.014Z,99447.59
2022-07-30T10:02:31.934Z,99460.16
2022-07-30T10:05:10.643Z,99461.25
2022-07-30T10:07:48.924Z,99458.50
2022-07-30T10:10:20.448Z,99463.16
2022-07-30T10:12:49.960Z,99461.25
2022-07-30T10:15:20.103Z,99466.44
2022-07-30T10:17:49.030Z,99478.97
2022-07-30T10:20:17.863Z,99481.69
2022-07-30T10:22:46.693Z,99478.97
2022-07-30T10:25:20.699Z,99473.50
2022-07-30T10:27:50.175Z,99480.63
2022-07-30T10:30:29.518Z,99484.97
2022-07-30T10:32:58.700Z,99491.25
2022-07-30T10:35:31.472Z,99488.50
2022-07-30T10:38:08.577Z,99484.69
2022-07-30T10:40:39.560Z,99482.47
2022-07-30T10:43:43.946Z,99474.25
2022-07-30T10:46:21.838Z,99486.31
2022-07-30T10:48:51.289Z,99490.66
2022-07-30T10:51:25.494Z,99489.56
2022-07-30T10:54:02.356Z,99475.59
2022-07-30T10:56:30.362Z,99470.97
2022-07-30T10:58:59.317Z,99462.78
2022-07-30T11:01:53.619Z,99451.84
2022-07-30T11:04:22.142Z,99446.41
2022-07-30T11:06:54.248Z,99441.47
2022-07-30T11:09:40.787Z,99451.31
2022-07-30T11:12:11.158Z,99451.31
2022-07-30T11:15:06.202Z,99456.47
2022-07-30T11:18:12.649Z,99458.91
2022-07-30T11:20:41.059Z,99463.84
2022-07-30T11:23:37.408Z,99470.13
2022-07-30T11:26:07.301Z,99468.19
2022-07-30T11:28:36.864Z,99472.56
2022-07-30T11:31:10.069Z,99464.38
2022-07-30T11:33:40.036Z,99469.84
2022-07-30T11:36:11.915Z,99462.72
2022-07-30T11:38:57.963Z,99464.38
2022-07-30T11:41:29.217Z,99465.47
2022-07-30T11:44:31.113Z,99466.00
2022-07-30T11:46:59.121Z,99464.38
2022-07-30T11:49:28.491Z,99463.25
2022-07-30T11:51:56.531Z,99457.78
2022-07-30T11:54:25.213Z,99453.97
2022-07-30T11:56:53.780Z,99447.41
2022-07-30T11:59:21.756Z,99449.00
2022-07-30T12:01:53.085Z,99446.28
2022-07-30T12:04:21.059Z,99439.72
2022-07-30T12:06:50.628Z,99441.06
2022-07-30T12:09:27.597Z,99443.00
2022-07-30T12:11:55.788Z,99446.81
2022-07-30T12:14:23.795Z,99453.94
2022-07-30T12:16:52.212Z,99456.66
2022-07-30T12:19:20.223Z,99461.00
2022-07-30T12:21:52.574Z,99459.38
2022-07-30T12:24:25.784Z,99472.75
2022-07-30T12:26:53.849Z,99468.09
2022-07-30T12:29:21.894Z,99469.72
2022-07-30T12:31:49.926Z,99465.88
2022-07-30T12:34:21.742Z,99453.03
2022-07-30T12:36:49.775Z,99457.41
2022-07-30T12:39:21.388Z,99464.50
2022-07-30T12:41:51.555Z,99460.94
2022-07-30T12:44:41.731Z,99469.16
2022-07-30T12:47:20.269Z,99469.16
2022-07-30T12:49:50.210Z,99472.97
2022-07-30T12:52:28.798Z,99467.50
2022-07-30T12:55:05.612Z,99473.81
2022-07-30T12:57:56.471Z,99474.63
2022-07-30T13:00:24.932Z,99472.97
2022-07-30T13:02:53.027Z,99476.81
2022-07-30T13:05:21.176Z,99469.72
2022-07-30T13:07:56.746Z,99464.28
2022-07-30T13:10:30.087Z,99472.75
2022-07-30T13:13:00.536Z,99488.34
2022-07-30T13:15:28.501Z,99494.91
2022-07-30T13:17:56.452Z,99480.13
2022-07-30T13:20:24.413Z,99468.94
2022-07-30T13:22:52.375Z,99468.94
2022-07-30T13:25:20.501Z,99474.09
2022-07-30T13:27:48.774Z,99486.63
2022-07-30T13:30:18.099Z,99483.91
2022-07-30T13:32:46.265Z,99491.59
2022-07-30T13:35:14.224Z,99493.75
2022-07-30T13:37:42.178Z,99494.84
2022-07-30T13:40:11.366Z,99504.69
2022-07-30T13:42:39.363Z,99496.47
2022-07-30T13:45:08.415Z,99498.09
2022-07-30T13:47:37.806Z,99491.81
2022-07-30T13:50:06.645Z,99495.38
2022-07-30T13:52:34.572Z,99482.50
2022-07-30T13:55:02.699Z,99475.16
2022-07-30T13:57:30.778Z,99474.03
2022-07-30T13:59:58.763Z,99474.31
2022-07-30T14:02:26.766Z,99471.56
2022-07-30T14:04:57.612Z,99486.06
2022-07-30T14:07:25.792Z,99494.28
2022-07-30T14:09:54.643Z,99495.38
2022-07-30T14:12:22.801Z,99491.81
2022-07-30T14:14:50.748Z,99501.94
2022-07-30T14:17:18.801Z,99510.16
2022-07-30T14:19:47.180Z,99508.81
2022-07-30T14:22:16.530Z,99510.72
2022-07-30T14:24:44.508Z,99503.34
2022-07-30T14:27:12.522Z,99507.19
2022-07-30T14:29:40.506Z,99506.34
2022-07-30T14:32:08.496Z,99510.19
2022-07-30T14:34:36.476Z,99507.47
2022-07-30T14:37:04.926Z,99501.47
2022-07-30T14:39:34.595Z,99499.28
2022-07-30T14:42:02.535Z,99499.28
2022-07-30T14:44:30.529Z,99491.06
2022-07-30T14:46:58.492Z,99489.94
2022-07-30T14:49:26.515Z,99486.13
2022-07-30T14:51:54.637Z,99491.59
2022-07-30T14:54:22.825Z,99489.69
2022-07-30T14:56:57.749Z,99489.69
2022-07-30T14:59:26.655Z,99497.56
2022-07-30T15:01:55.280Z,99493.22
2022-07-30T15:04:23.476Z,99494.84
2022-07-30T15:06:51.444Z,99501.41
2022-07-30T15:09:19.773Z,99509.63
2022-07-30T15:12:08.628Z,99520.53
2022-07-30T15:14:37.933Z,99531.47
2022-07-30T15:17:06.098Z,99537.75
2022-07-30T15:19:34.137Z,99536.94
2022-07-30T15:22:03.137Z,99549.00
2022-07-30T15:24:31.779Z,99565.09
2022-07-30T15:26:59.767Z,99552.53
2022-07-30T15:29:30.166Z,99560.75
2022-07-30T15:32:01.587Z,99567.31
2022-07-30T15:34:34.188Z,99571.94
2022-07-30T15:37:02.785Z,99582.88
2022-07-30T15:39:32.983Z,99594.94
2022-07-30T15:42:01.896Z,99590.56
2022-07-30T15:44:30.210Z,99590.56
2022-07-30T15:46:59.913Z,99590.56
2022-07-30T15:49:28.993Z,99601.50
2022-07-30T15:51:57.277Z,99599.84
2022-07-30T15:54:25.447Z,99588.94
2022-07-30T15:56:54.106Z,99583.47
2022-07-30T15:59:28.877Z,99570.09
2022-07-30T16:02:01.383Z,99559.16
2022-07-30T16:04:31.011Z,99565.72
2022-07-30T16:07:00.470Z,99596.59
2022-07-30T16:09:28.422Z,99655.09
2022-07-30T16:11:56.699Z,99715.22
2022-07-30T16:14:24.748Z,99754.28
2022-07-30T16:16:53.453Z,99789.00
2022-07-30T16:19:22.828Z,99752.38
2022-07-30T16:21:51.007Z,99686.28
2022-07-30T16:24:19.100Z,99679.16
2022-07-30T16:26:47.068Z,99663.88
2022-07-30T16:29:15.050Z,99672.06
2022-07-30T16:31:43.831Z,99672.06
2022-07-30T16:34:11.837Z,99670.41
2022-07-30T16:36:41.252Z,99666.59
2022-07-30T16:39:09.340Z,99665.78
2022-07-30T16:41:37.380Z,99659.47
2022-07-30T16:44:05.831Z,99653.22
2022-07-30T16:46:33.810Z,99646.66
2022-07-30T16:49:01.838Z,99641.47
2022-07-30T16:51:30.777Z,99653.22
2022-07-30T16:54:00.379Z,99651.28
2022-07-30T16:56:29.019Z,99649.41
2022-07-30T16:58:57.066Z,99643.09
2022-07-30T17:01:25.095Z,99651.28
2022-07-30T17:03:53.168Z,99651.28
2022-07-30T17:06:21.214Z,99654.03
2022-07-30T17:08:49.247Z,99653.22
2022-07-30T17:11:47.834Z,99657.88
2022-07-30T17:14:07.435Z,99655.13
2022-07-30T17:16:35.452Z,99648.03
2022-07-30T17:19:09.483Z,99643.38
2022-07-30T17:21:38.060Z,99644.47
2022-07-30T17:24:11.102Z,99647.50
2022-07-30T17:26:43.125Z,99643.66
2022-07-30T17:29:14.180Z,99640.94
2022-07-30T17:31:44.313Z,99633.53
2022-07-30T17:34:13.802Z,99631.66
2022-07-30T17:36:42.131Z,99625.66
2022-07-30T17:39:18.145Z,99618.25
2022-07-30T17:42:05.226Z,99611.41
2022-07-30T17:44:33.222Z,99622.34
2022-07-30T17:47:01.190Z,99631.66
2022-07-30T17:49:31.114Z,99638.75
2022-07-30T17:51:59.278Z,99627.81
2022-07-30T17:54:27.393Z,99633.28
2022-07-30T17:56:55.363Z,99634.41
2022-07-30T17:59:24.729Z,99627.81
2022-07-30T18:01:52.687Z,99604.34
2022-07-30T18:04:20.767Z,99602.69
2022-07-30T18:06:50.726Z,99608.16
2022-07-30T18:09:18.829Z,99603.53
2022-07-30T18:11:46.962Z,99609.25
2022-07-30T18:14:14.944Z,99619.09
2022-07-30T18:16:44.448Z,99618.28
2022-07-30T18:19:22.766Z,99616.66
2022-07-30T18:21:55.316Z,99621.31
2022-07-30T18:24:24.804Z,99630.59
2022-07-30T18:26:52.934Z,99637.16
2022-07-30T18:29:21.123Z,99636.34
2022-07-30T18:31:50.463Z,99635.25
2022-07-30T18:34:18.429Z,99644.81
2022-07-30T18:36:51.045Z,99650.28
2022-07-30T18:39:19.039Z,99663.13
2022-07-30T18:41:46.981Z,99671.59
2022-07-30T18:44:14.942Z,99665.34
2022-07-30T18:46:42.961Z,99679.81
2022-07-30T18:49:34.307Z,99683.66
2022-07-30T18:52:02.946Z,99681.47
2022-07-30T18:54:31.270Z,99689.91
2022-07-30T18:56:59.309Z,99687.19
2022-07-30T18:59:27.421Z,99699.72
2022-07-30T19:01:55.447Z,99711.78
2022-07-30T19:04:24.856Z,99720.78
2022-07-30T19:06:52.849Z,99748.09
2022-07-30T19:09:20.883Z,99754.38
2022-07-30T19:11:48.873Z,99759.03
2022-07-30T19:14:16.883Z,99770.78
2022-07-30T19:16:44.826Z,99780.06
2022-07-30T19:19:13.704Z,99772.69
2022-07-30T19:21:43.137Z,99762.06
2022-07-30T19:24:11.186Z,99754.69
2022-07-30T19:26:40.016Z,99768.34
2022-07-30T19:29:08.269Z,99774.06
2022-07-30T19:31:36.415Z,99782.25
2022-07-30T19:34:04.391Z,99781.44
2022-07-30T19:36:32.484Z,99782.25
2022-07-30T19:39:07.164Z,99785.28
2022-07-30T19:41:40.707Z,99780.63
2022-07-30T19:44:09.213Z,99767.78
2022-07-30T19:46:37.249Z,99772.72
2022-07-30T19:49:06.805Z,99785.28
2022-07-30T19:52:10.162Z,99771.09
2022-07-30T19:54:24.562Z,99773.00
2022-07-30T19:56:52.566Z,99785.03
2022-07-30T19:59:45.063Z,99784.22
2022-07-30T20:02:08.680Z,99775.47
2022-07-30T20:04:37.956Z,99771.66
2022-07-30T20:07:05.953Z,99769.19
2022-07-30T20:09:35.326Z,99762.91
2022-07-30T20:12:03.682Z,99758.56
2022-07-30T20:14:33.207Z,99755.84
2022-07-30T20:17:02.167Z,99754.19
2022-07-30T20:19:35.961Z,99758.84
2022-07-30T20:22:04.375Z,99748.19
2022-07-30T20:24:32.341Z,99751.44
2022-07-30T20:27:35.468Z,99746.28
2022-07-30T20:29:49.824Z,99738.91
2022-07-30T20:32:18.420Z,99745.19
2022-07-30T20:34:46.959Z,99747.09
2022-07-30T20:37:21.418Z,99756.91
2022-07-30T20:39:50.735Z,99758.03
2022-07-30T20:42:21.916Z,99754.19
2022-07-30T20:44:53.499Z,99758.03
2022-07-30T20:47:28.222Z,99761.84
2022-07-30T20:50:02.548Z,99762.94
2022-07-30T20:52:30.504Z,99765.69
2022-07-30T20:54:58.520Z,99771.13
2022-07-30T20:57:56.288Z,99779.34
2022-07-30T21:00:18.707Z,99780.44
2022-07-30T21:02:48.273Z,99782.06
2022-07-30T21:05:19.877Z,99780.44
2022-07-30T21:07:48.263Z,99785.91
2022-07-30T21:13:10.923Z,99784.25
2022-07-30T21:15:45.494Z,99783.44
2022-07-30T21:18:26.974Z,99792.75
2022-07-30T21:20:56.847Z,99790.00
2022-07-30T21:23:26.049Z,99801.75
2022-07-30T21:26:01.073Z,99808.31
2022-07-30T21:28:35.641Z,99803.13
2022-07-30T21:31:06.957Z,99808.84
2022-07-30T21:33:36.120Z,99823.34
2022-07-30T21:36:04.087Z,99822.50
2022-07-30T21:38:34.461Z,99822.81
2022-07-30T21:41:02.581Z,99822.00
2022-07-30T21:43:40.264Z,99827.47
2022-07-30T21:46:10.457Z,99825.81
2022-07-30T21:48:39.695Z,99827.47
2022-07-30T21:51:09.531Z,99836.72
2022-07-30T21:53:45.101Z,99835.66
2022-07-30T21:56:14.468Z,99833.72
2022-07-30T21:58:44.097Z,99838.38
2022-07-30T22:01:17.795Z,99828.53
2022-07-30T22:04:03.129Z,99834.28
2022-07-30T22:06:34.958Z,99830.44
2022-07-30T22:09:08.531Z,99834.28
2022-07-30T22:11:46.671Z,99829.63
2022-07-30T22:14:16.150Z,99839.75
2022-07-30T22:16:46.295Z,99840.56
2022-07-30T22:19:32.130Z,99833.44
2022-07-30T22:22:03.571Z,99833.44
2022-07-30T22:24:48.031Z,99831.00
2022-07-30T22:27:16.229Z,99826.38
2022-07-30T22:29:48.031Z,99826.38
2022-07-30T22:32:16.212Z,99826.38
2022-07-30T22:34:44.951Z,99826.38
2022-07-30T22:37:14.774Z,99830.19
2022-07-30T22:39:51.049Z,99832.94
2022-07-30T22:42:23.928Z,99832.09
2022-07-30T22:44:54.703Z,99831.00
2022-07-30T22:47:50.300Z,99834.00
2022-07-30T22:50:11.741Z,99821.47
2022-07-30T22:52:40.033Z,99822.56
2022-07-30T22:55:16.990Z,99813.53
2022-07-30T22:57:50.207Z,99813.53
2022-07-30T23:00:28.339Z,99810.00
2022-07-30T23:02:56.770Z,99814.66
2022-07-30T23:05:25.067Z,99812.72
2022-07-30T23:07:53.179Z,99803.47
2022-07-30T23:10:21.295Z,99819.56
2022-07-30T23:12:31.225Z,99783.19
2022-07-30T23:12:52.868Z,99818.75
2022-07-30T23:15:22.432Z,99822.28
2022-07-30T23:17:50.458Z,99822.59
2022-07-30T23:20:20.357Z,99814.41
2022-07-30T23:22:48.780Z,99816.00
2022-07-30T23:25:16.743Z,99806.19
2022-07-30T23:27:46.743Z,99806.19
2022-07-30T23:30:15.171Z,99806.19
2022-07-30T23:32:44.507Z,99807.00
2022-07-30T23:35:12.480Z,99806.19
2022-07-30T23:37:48.637Z,99810.81
2022-07-30T23:40:17.960Z,99810.81
2022-07-30T23:42:45.931Z,99810.81
2022-07-30T23:45:13.984Z,99811.66
2022-07-30T23:47:52.950Z,99815.47
2022-07-30T23:50:31.949Z,99818.50
2022-07-30T23:52:59.986Z,99815.47
2022-07-30T23:55:28.186Z,99820.13
2022-07-30T23:57:56.194Z,99811.13
